sensor_id;sensor_type;location;lat;lon;timestamp;P1;durP1;ratioP1;P2;durP2;ratioP2
568;SDS011;269;48.884;9.192;2023-07-09T00:01:04;5.20;;;4.67;;
568;SDS011;269;48.884;9.192;2023-07-09T00:03:31;6.40;;;4.80;;
568;SDS011;269;48.884;9.192;2023-07-09T00:05:58;5.33;;;4.77;;
568;SDS011;269;48.884;9.192;2023-07-09T00:08:26;5.57;;;5.07;;
568;SDS011;269;48.884;9.192;2023-07-09T00:10:56;5.23;;;4.73;;
568;SDS011;269;48.884;9.192;2023-07-09T00:13:25;4.97;;;4.50;;
568;SDS011;269;48.884;9.192;2023-07-09T00:15:53;4.80;;;4.33;;
568;SDS011;269;48.884;9.192;2023-07-09T00:18:24;5.00;;;4.37;;
568;SDS011;269;48.884;9.192;2023-07-09T00:20:51;5.20;;;4.47;;
568;SDS011;269;48.884;9.192;2023-07-09T00:23:18;4.80;;;4.40;;
568;SDS011;269;48.884;9.192;2023-07-09T00:25:45;4.97;;;4.50;;
568;SDS011;269;48.884;9.192;2023-07-09T00:28:14;5.37;;;4.83;;
568;SDS011;269;48.884;9.192;2023-07-09T00:30:43;6.53;;;4.47;;
568;SDS011;269;48.884;9.192;2023-07-09T00:33:10;4.83;;;4.43;;
568;SDS011;269;48.884;9.192;2023-07-09T00:35:40;4.63;;;4.23;;
568;SDS011;269;48.884;9.192;2023-07-09T00:38:13;4.70;;;4.30;;
568;SDS011;269;48.884;9.192;2023-07-09T00:40:45;4.27;;;3.87;;
568;SDS011;269;48.884;9.192;2023-07-09T00:43:16;6.07;;;4.13;;
568;SDS011;269;48.884;9.192;2023-07-09T00:45:43;5.00;;;4.17;;
568;SDS011;269;48.884;9.192;2023-07-09T00:48:12;4.07;;;3.77;;
568;SDS011;269;48.884;9.192;2023-07-09T00:50:44;4.50;;;4.10;;
568;SDS011;269;48.884;9.192;2023-07-09T00:53:17;5.80;;;4.73;;
568;SDS011;269;48.884;9.192;2023-07-09T00:55:49;4.37;;;3.93;;
568;SDS011;269;48.884;9.192;2023-07-09T00:58:20;4.73;;;4.23;;
568;SDS011;269;48.884;9.192;2023-07-09T01:00:55;4.67;;;4.27;;
568;SDS011;269;48.884;9.192;2023-07-09T01:03:27;5.60;;;5.10;;
568;SDS011;269;48.884;9.192;2023-07-09T01:05:58;6.60;;;4.23;;
568;SDS011;269;48.884;9.192;2023-07-09T01:08:25;5.77;;;4.60;;
568;SDS011;269;48.884;9.192;2023-07-09T01:10:56;5.23;;;4.40;;
568;SDS011;269;48.884;9.192;2023-07-09T01:13:25;4.93;;;4.40;;
568;SDS011;269;48.884;9.192;2023-07-09T01:15:53;4.17;;;3.77;;
568;SDS011;269;48.884;9.192;2023-07-09T01:18:21;5.20;;;4.70;;
568;SDS011;269;48.884;9.192;2023-07-09T01:20:50;4.50;;;4.03;;
568;SDS011;269;48.884;9.192;2023-07-09T01:23:20;4.07;;;3.70;;
568;SDS011;269;48.884;9.192;2023-07-09T01:25:50;4.90;;;4.40;;
568;SDS011;269;48.884;9.192;2023-07-09T01:28:20;5.33;;;4.10;;
568;SDS011;269;48.884;9.192;2023-07-09T01:30:47;4.83;;;4.43;;
568;SDS011;269;48.884;9.192;2023-07-09T01:33:19;4.87;;;4.40;;
568;SDS011;269;48.884;9.192;2023-07-09T01:35:47;4.57;;;4.20;;
568;SDS011;269;48.884;9.192;2023-07-09T01:38:14;8.10;;;4.80;;
568;SDS011;269;48.884;9.192;2023-07-09T01:40:43;4.50;;;4.10;;
568;SDS011;269;48.884;9.192;2023-07-09T01:43:11;5.37;;;4.57;;
568;SDS011;269;48.884;9.192;2023-07-09T01:45:39;5.60;;;4.63;;
568;SDS011;269;48.884;9.192;2023-07-09T01:48:06;4.53;;;4.13;;
568;SDS011;269;48.884;9.192;2023-07-09T01:50:41;6.17;;;5.10;;
568;SDS011;269;48.884;9.192;2023-07-09T01:53:08;5.10;;;4.60;;
568;SDS011;269;48.884;9.192;2023-07-09T01:55:36;5.13;;;4.63;;
568;SDS011;269;48.884;9.192;2023-07-09T01:58:05;5.00;;;4.53;;
568;SDS011;269;48.884;9.192;2023-07-09T02:00:33;5.70;;;5.20;;
568;SDS011;269;48.884;9.192;2023-07-09T02:03:01;5.43;;;4.53;;
568;SDS011;269;48.884;9.192;2023-07-09T02:05:30;5.13;;;4.67;;
568;SDS011;269;48.884;9.192;2023-07-09T02:07:58;5.03;;;4.53;;
568;SDS011;269;48.884;9.192;2023-07-09T02:10:25;5.20;;;4.70;;
568;SDS011;269;48.884;9.192;2023-07-09T02:12:52;6.07;;;5.10;;
568;SDS011;269;48.884;9.192;2023-07-09T02:15:21;5.47;;;4.90;;
568;SDS011;269;48.884;9.192;2023-07-09T02:17:48;6.07;;;4.53;;
568;SDS011;269;48.884;9.192;2023-07-09T02:20:15;6.30;;;5.07;;
568;SDS011;269;48.884;9.192;2023-07-09T02:22:43;5.67;;;4.80;;
568;SDS011;269;48.884;9.192;2023-07-09T02:25:11;7.33;;;4.83;;
568;SDS011;269;48.884;9.192;2023-07-09T02:27:38;6.80;;;4.90;;
568;SDS011;269;48.884;9.192;2023-07-09T02:30:05;5.73;;;5.17;;
568;SDS011;269;48.884;9.192;2023-07-09T02:32:35;5.30;;;4.80;;
568;SDS011;269;48.884;9.192;2023-07-09T02:35:02;5.33;;;4.83;;
568;SDS011;269;48.884;9.192;2023-07-09T02:37:29;5.13;;;4.73;;
568;SDS011;269;48.884;9.192;2023-07-09T02:39:57;5.27;;;4.77;;
568;SDS011;269;48.884;9.192;2023-07-09T02:42:24;5.30;;;4.80;;
568;SDS011;269;48.884;9.192;2023-07-09T02:44:51;4.80;;;4.40;;
568;SDS011;269;48.884;9.192;2023-07-09T02:47:18;6.20;;;5.27;;
568;SDS011;269;48.884;9.192;2023-07-09T02:49:46;5.30;;;4.80;;
568;SDS011;269;48.884;9.192;2023-07-09T02:52:13;6.10;;;5.30;;
568;SDS011;269;48.884;9.192;2023-07-09T02:54:40;6.27;;;5.07;;
568;SDS011;269;48.884;9.192;2023-07-09T02:57:08;6.00;;;5.40;;
568;SDS011;269;48.884;9.192;2023-07-09T02:59:35;5.73;;;5.10;;
568;SDS011;269;48.884;9.192;2023-07-09T03:02:02;6.70;;;5.37;;
568;SDS011;269;48.884;9.192;2023-07-09T03:04:30;5.90;;;5.30;;
568;SDS011;269;48.884;9.192;2023-07-09T03:06:59;5.63;;;5.07;;
568;SDS011;269;48.884;9.192;2023-07-09T03:09:26;5.43;;;4.93;;
568;SDS011;269;48.884;9.192;2023-07-09T03:11:54;5.20;;;4.70;;
568;SDS011;269;48.884;9.192;2023-07-09T03:14:21;5.33;;;4.70;;
568;SDS011;269;48.884;9.192;2023-07-09T03:16:48;4.40;;;4.00;;
568;SDS011;269;48.884;9.192;2023-07-09T03:19:15;5.23;;;4.73;;
568;SDS011;269;48.884;9.192;2023-07-09T03:21:42;5.07;;;4.57;;
568;SDS011;269;48.884;9.192;2023-07-09T03:24:11;5.10;;;4.60;;
568;SDS011;269;48.884;9.192;2023-07-09T03:26:44;6.43;;;4.97;;
568;SDS011;269;48.884;9.192;2023-07-09T03:29:11;4.80;;;4.27;;
568;SDS011;269;48.884;9.192;2023-07-09T03:31:38;5.43;;;4.70;;
568;SDS011;269;48.884;9.192;2023-07-09T03:34:05;4.93;;;4.53;;
568;SDS011;269;48.884;9.192;2023-07-09T03:36:32;7.03;;;5.10;;
568;SDS011;269;48.884;9.192;2023-07-09T03:39:02;7.57;;;4.80;;
568;SDS011;269;48.884;9.192;2023-07-09T03:41:31;4.60;;;4.20;;
568;SDS011;269;48.884;9.192;2023-07-09T03:43:58;5.07;;;4.57;;
568;SDS011;269;48.884;9.192;2023-07-09T03:46:24;6.20;;;4.63;;
568;SDS011;269;48.884;9.192;2023-07-09T03:48:52;4.97;;;4.47;;
568;SDS011;269;48.884;9.192;2023-07-09T03:51:19;6.77;;;4.73;;
568;SDS011;269;48.884;9.192;2023-07-09T03:53:46;5.20;;;4.70;;
568;SDS011;269;48.884;9.192;2023-07-09T03:56:13;6.30;;;4.57;;
568;SDS011;269;48.884;9.192;2023-07-09T03:58:41;4.83;;;4.43;;
568;SDS011;269;48.884;9.192;2023-07-09T04:01:08;5.03;;;4.47;;
568;SDS011;269;48.884;9.192;2023-07-09T04:03:35;4.73;;;4.33;;
568;SDS011;269;48.884;9.192;2023-07-09T04:06:02;5.23;;;4.63;;
568;SDS011;269;48.884;9.192;2023-07-09T04:08:29;4.50;;;4.10;;
568;SDS011;269;48.884;9.192;2023-07-09T04:10:58;5.53;;;5.03;;
568;SDS011;269;48.884;9.192;2023-07-09T04:13:29;4.73;;;4.33;;
568;SDS011;269;48.884;9.192;2023-07-09T04:15:57;5.37;;;4.67;;
568;SDS011;269;48.884;9.192;2023-07-09T04:18:24;5.80;;;4.53;;
568;SDS011;269;48.884;9.192;2023-07-09T04:20:52;4.57;;;4.17;;
568;SDS011;269;48.884;9.192;2023-07-09T04:23:19;5.03;;;4.40;;
568;SDS011;269;48.884;9.192;2023-07-09T04:25:46;6.50;;;4.77;;
568;SDS011;269;48.884;9.192;2023-07-09T04:28:14;4.83;;;4.40;;
568;SDS011;269;48.884;9.192;2023-07-09T04:30:45;4.73;;;4.33;;
568;SDS011;269;48.884;9.192;2023-07-09T04:33:15;5.10;;;4.60;;
568;SDS011;269;48.884;9.192;2023-07-09T04:35:43;5.53;;;4.67;;
568;SDS011;269;48.884;9.192;2023-07-09T04:38:11;4.90;;;4.40;;
568;SDS011;269;48.884;9.192;2023-07-09T04:40:39;4.67;;;4.30;;
568;SDS011;269;48.884;9.192;2023-07-09T04:43:06;5.17;;;4.77;;
568;SDS011;269;48.884;9.192;2023-07-09T04:45:33;5.33;;;4.23;;
568;SDS011;269;48.884;9.192;2023-07-09T04:48:00;4.40;;;4.07;;
568;SDS011;269;48.884;9.192;2023-07-09T04:50:29;5.20;;;4.53;;
568;SDS011;269;48.884;9.192;2023-07-09T04:52:56;6.67;;;5.40;;
568;SDS011;269;48.884;9.192;2023-07-09T04:55:23;5.37;;;4.90;;
568;SDS011;269;48.884;9.192;2023-07-09T04:57:50;5.27;;;4.77;;
568;SDS011;269;48.884;9.192;2023-07-09T05:00:17;5.90;;;4.80;;
568;SDS011;269;48.884;9.192;2023-07-09T05:02:44;5.60;;;4.87;;
568;SDS011;269;48.884;9.192;2023-07-09T05:05:11;5.63;;;4.30;;
568;SDS011;269;48.884;9.192;2023-07-09T05:07:41;5.50;;;4.27;;
568;SDS011;269;48.884;9.192;2023-07-09T05:10:08;5.30;;;4.70;;
568;SDS011;269;48.884;9.192;2023-07-09T05:12:36;6.30;;;5.17;;
568;SDS011;269;48.884;9.192;2023-07-09T05:15:15;5.17;;;4.67;;
568;SDS011;269;48.884;9.192;2023-07-09T05:17:44;6.30;;;4.73;;
568;SDS011;269;48.884;9.192;2023-07-09T05:20:11;5.13;;;4.63;;
568;SDS011;269;48.884;9.192;2023-07-09T05:22:41;5.10;;;4.70;;
568;SDS011;269;48.884;9.192;2023-07-09T05:25:09;5.20;;;4.73;;
568;SDS011;269;48.884;9.192;2023-07-09T05:27:37;5.33;;;4.83;;
568;SDS011;269;48.884;9.192;2023-07-09T05:30:04;4.97;;;4.57;;
568;SDS011;269;48.884;9.192;2023-07-09T05:32:35;5.27;;;4.53;;
568;SDS011;269;48.884;9.192;2023-07-09T05:35:03;4.80;;;4.40;;
568;SDS011;269;48.884;9.192;2023-07-09T05:37:31;5.80;;;5.20;;
568;SDS011;269;48.884;9.192;2023-07-09T05:40:00;4.83;;;4.43;;
568;SDS011;269;48.884;9.192;2023-07-09T05:42:27;5.83;;;5.27;;
568;SDS011;269;48.884;9.192;2023-07-09T05:44:54;5.33;;;4.87;;
568;SDS011;269;48.884;9.192;2023-07-09T05:47:21;4.90;;;4.50;;
568;SDS011;269;48.884;9.192;2023-07-09T05:49:48;5.50;;;5.00;;
568;SDS011;269;48.884;9.192;2023-07-09T05:52:16;4.90;;;4.50;;
568;SDS011;269;48.884;9.192;2023-07-09T05:54:43;4.47;;;4.07;;
568;SDS011;269;48.884;9.192;2023-07-09T05:57:11;5.53;;;5.00;;
568;SDS011;269;48.884;9.192;2023-07-09T05:59:38;4.93;;;4.53;;
568;SDS011;269;48.884;9.192;2023-07-09T06:02:07;5.20;;;4.70;;
568;SDS011;269;48.884;9.192;2023-07-09T06:04:36;5.73;;;4.70;;
568;SDS011;269;48.884;9.192;2023-07-09T06:07:03;5.23;;;4.73;;
568;SDS011;269;48.884;9.192;2023-07-09T06:09:31;5.00;;;4.50;;
568;SDS011;269;48.884;9.192;2023-07-09T06:11:58;7.00;;;4.83;;
568;SDS011;269;48.884;9.192;2023-07-09T06:14:27;5.73;;;5.23;;
568;SDS011;269;48.884;9.192;2023-07-09T06:16:54;5.97;;;4.83;;
568;SDS011;269;48.884;9.192;2023-07-09T06:19:23;4.97;;;4.43;;
568;SDS011;269;48.884;9.192;2023-07-09T06:21:50;5.50;;;5.00;;
568;SDS011;269;48.884;9.192;2023-07-09T06:24:17;4.90;;;4.50;;
568;SDS011;269;48.884;9.192;2023-07-09T06:26:44;6.30;;;5.10;;
568;SDS011;269;48.884;9.192;2023-07-09T06:29:11;6.50;;;5.10;;
568;SDS011;269;48.884;9.192;2023-07-09T06:31:40;5.80;;;4.60;;
568;SDS011;269;48.884;9.192;2023-07-09T06:34:08;5.33;;;4.80;;
568;SDS011;269;48.884;9.192;2023-07-09T06:36:35;5.33;;;4.40;;
568;SDS011;269;48.884;9.192;2023-07-09T06:39:03;5.80;;;5.30;;
568;SDS011;269;48.884;9.192;2023-07-09T06:41:30;5.40;;;4.90;;
568;SDS011;269;48.884;9.192;2023-07-09T06:44:04;5.37;;;4.87;;
568;SDS011;269;48.884;9.192;2023-07-09T06:46:32;5.17;;;4.77;;
568;SDS011;269;48.884;9.192;2023-07-09T06:49:00;5.60;;;5.10;;
568;SDS011;269;48.884;9.192;2023-07-09T06:51:28;4.80;;;4.40;;
568;SDS011;269;48.884;9.192;2023-07-09T06:53:55;4.93;;;4.43;;
568;SDS011;269;48.884;9.192;2023-07-09T06:56:23;5.63;;;5.13;;
568;SDS011;269;48.884;9.192;2023-07-09T06:58:50;6.17;;;5.07;;
568;SDS011;269;48.884;9.192;2023-07-09T07:01:17;5.23;;;4.77;;
568;SDS011;269;48.884;9.192;2023-07-09T07:03:44;6.03;;;5.43;;
568;SDS011;269;48.884;9.192;2023-07-09T07:06:13;6.03;;;5.43;;
568;SDS011;269;48.884;9.192;2023-07-09T07:08:41;5.07;;;4.67;;
568;SDS011;269;48.884;9.192;2023-07-09T07:11:08;5.57;;;5.17;;
568;SDS011;269;48.884;9.192;2023-07-09T07:13:36;5.73;;;5.23;;
568;SDS011;269;48.884;9.192;2023-07-09T07:16:04;5.07;;;4.50;;
568;SDS011;269;48.884;9.192;2023-07-09T07:18:33;6.00;;;5.10;;
568;SDS011;269;48.884;9.192;2023-07-09T07:21:01;5.60;;;5.10;;
568;SDS011;269;48.884;9.192;2023-07-09T07:23:30;5.50;;;5.00;;
568;SDS011;269;48.884;9.192;2023-07-09T07:25:57;5.63;;;5.13;;
568;SDS011;269;48.884;9.192;2023-07-09T07:28:25;5.20;;;4.80;;
568;SDS011;269;48.884;9.192;2023-07-09T07:30:58;6.20;;;4.57;;
568;SDS011;269;48.884;9.192;2023-07-09T07:33:26;5.40;;;4.90;;
568;SDS011;269;48.884;9.192;2023-07-09T07:35:53;5.57;;;4.97;;
568;SDS011;269;48.884;9.192;2023-07-09T07:38:20;5.30;;;4.90;;
568;SDS011;269;48.884;9.192;2023-07-09T07:40:49;5.30;;;4.80;;
568;SDS011;269;48.884;9.192;2023-07-09T07:43:16;5.77;;;5.23;;
568;SDS011;269;48.884;9.192;2023-07-09T07:45:43;5.20;;;4.70;;
568;SDS011;269;48.884;9.192;2023-07-09T07:48:11;5.27;;;4.77;;
568;SDS011;269;48.884;9.192;2023-07-09T07:50:39;5.37;;;4.87;;
568;SDS011;269;48.884;9.192;2023-07-09T07:53:06;5.10;;;4.70;;
568;SDS011;269;48.884;9.192;2023-07-09T07:55:34;5.07;;;4.57;;
568;SDS011;269;48.884;9.192;2023-07-09T07:58:03;5.53;;;5.03;;
568;SDS011;269;48.884;9.192;2023-07-09T08:00:31;5.97;;;4.70;;
568;SDS011;269;48.884;9.192;2023-07-09T08:02:58;6.40;;;5.47;;
568;SDS011;269;48.884;9.192;2023-07-09T08:05:25;6.60;;;5.13;;
568;SDS011;269;48.884;9.192;2023-07-09T08:07:52;5.90;;;5.40;;
568;SDS011;269;48.884;9.192;2023-07-09T08:10:20;5.80;;;5.20;;
568;SDS011;269;48.884;9.192;2023-07-09T08:12:47;4.70;;;4.20;;
568;SDS011;269;48.884;9.192;2023-07-09T08:15:16;5.60;;;5.10;;
568;SDS011;269;48.884;9.192;2023-07-09T08:17:43;4.97;;;4.57;;
568;SDS011;269;48.884;9.192;2023-07-09T08:20:10;5.13;;;4.60;;
568;SDS011;269;48.884;9.192;2023-07-09T08:22:38;4.40;;;4.00;;
568;SDS011;269;48.884;9.192;2023-07-09T08:25:06;6.20;;;4.87;;
568;SDS011;269;48.884;9.192;2023-07-09T08:27:33;4.60;;;4.10;;
568;SDS011;269;48.884;9.192;2023-07-09T08:30:00;4.87;;;4.00;;
568;SDS011;269;48.884;9.192;2023-07-09T08:32:29;5.23;;;4.80;;
568;SDS011;269;48.884;9.192;2023-07-09T08:34:56;5.40;;;4.33;;
568;SDS011;269;48.884;9.192;2023-07-09T08:37:23;4.50;;;4.10;;
568;SDS011;269;48.884;9.192;2023-07-09T08:39:50;4.60;;;4.10;;
568;SDS011;269;48.884;9.192;2023-07-09T08:42:20;4.47;;;4.07;;
568;SDS011;269;48.884;9.192;2023-07-09T08:44:58;4.40;;;4.10;;
568;SDS011;269;48.884;9.192;2023-07-09T08:47:36;4.70;;;4.30;;
568;SDS011;269;48.884;9.192;2023-07-09T08:50:13;4.83;;;4.07;;
568;SDS011;269;48.884;9.192;2023-07-09T08:52:43;4.80;;;4.30;;
568;SDS011;269;48.884;9.192;2023-07-09T08:55:13;4.30;;;4.00;;
568;SDS011;269;48.884;9.192;2023-07-09T08:57:43;4.73;;;4.30;;
568;SDS011;269;48.884;9.192;2023-07-09T09:00:15;5.20;;;4.17;;
568;SDS011;269;48.884;9.192;2023-07-09T09:02:48;4.83;;;4.10;;
568;SDS011;269;48.884;9.192;2023-07-09T09:05:18;4.33;;;3.93;;
568;SDS011;269;48.884;9.192;2023-07-09T09:07:49;5.10;;;4.60;;
568;SDS011;269;48.884;9.192;2023-07-09T09:10:21;5.30;;;4.13;;
568;SDS011;269;48.884;9.192;2023-07-09T09:13:05;4.40;;;4.00;;
568;SDS011;269;48.884;9.192;2023-07-09T09:15:37;7.43;;;4.50;;
568;SDS011;269;48.884;9.192;2023-07-09T09:18:17;4.50;;;4.10;;
568;SDS011;269;48.884;9.192;2023-07-09T09:20:48;4.87;;;4.17;;
568;SDS011;269;48.884;9.192;2023-07-09T09:23:21;4.77;;;4.37;;
568;SDS011;269;48.884;9.192;2023-07-09T09:25:52;5.70;;;3.90;;
568;SDS011;269;48.884;9.192;2023-07-09T09:28:22;4.30;;;4.00;;
568;SDS011;269;48.884;9.192;2023-07-09T09:30:52;5.23;;;4.73;;
568;SDS011;269;48.884;9.192;2023-07-09T09:33:20;4.70;;;4.30;;
568;SDS011;269;48.884;9.192;2023-07-09T09:35:47;4.13;;;3.83;;
568;SDS011;269;48.884;9.192;2023-07-09T09:38:16;4.13;;;3.83;;
568;SDS011;269;48.884;9.192;2023-07-09T09:40:44;4.43;;;4.00;;
568;SDS011;269;48.884;9.192;2023-07-09T09:43:11;4.10;;;3.70;;
568;SDS011;269;48.884;9.192;2023-07-09T09:45:40;4.10;;;3.80;;
568;SDS011;269;48.884;9.192;2023-07-09T09:48:13;3.97;;;3.63;;
568;SDS011;269;48.884;9.192;2023-07-09T09:50:44;4.63;;;4.23;;
568;SDS011;269;48.884;9.192;2023-07-09T09:53:16;6.50;;;4.30;;
568;SDS011;269;48.884;9.192;2023-07-09T09:55:47;4.30;;;4.00;;
568;SDS011;269;48.884;9.192;2023-07-09T09:58:16;3.77;;;3.50;;
568;SDS011;269;48.884;9.192;2023-07-09T10:00:47;4.93;;;3.93;;
568;SDS011;269;48.884;9.192;2023-07-09T10:03:17;4.57;;;4.17;;
568;SDS011;269;48.884;9.192;2023-07-09T10:05:48;4.73;;;4.20;;
568;SDS011;269;48.884;9.192;2023-07-09T10:08:22;5.10;;;3.80;;
568;SDS011;269;48.884;9.192;2023-07-09T10:10:57;5.00;;;4.40;;
568;SDS011;269;48.884;9.192;2023-07-09T10:13:33;4.47;;;4.07;;
568;SDS011;269;48.884;9.192;2023-07-09T10:16:05;5.00;;;4.50;;
568;SDS011;269;48.884;9.192;2023-07-09T10:18:40;4.30;;;4.00;;
568;SDS011;269;48.884;9.192;2023-07-09T10:21:20;4.30;;;3.90;;
568;SDS011;269;48.884;9.192;2023-07-09T10:23:59;4.00;;;3.70;;
568;SDS011;269;48.884;9.192;2023-07-09T10:26:39;3.80;;;3.50;;
568;SDS011;269;48.884;9.192;2023-07-09T10:29:20;3.57;;;3.33;;
568;SDS011;269;48.884;9.192;2023-07-09T10:31:58;3.80;;;3.40;;
568;SDS011;269;48.884;9.192;2023-07-09T10:34:39;4.37;;;3.97;;
568;SDS011;269;48.884;9.192;2023-07-09T10:37:20;4.23;;;3.93;;
568;SDS011;269;48.884;9.192;2023-07-09T10:39:58;4.43;;;3.77;;
568;SDS011;269;48.884;9.192;2023-07-09T10:42:30;4.80;;;3.73;;
568;SDS011;269;48.884;9.192;2023-07-09T10:45:01;4.23;;;3.93;;
568;SDS011;269;48.884;9.192;2023-07-09T10:47:32;3.70;;;3.40;;
568;SDS011;269;48.884;9.192;2023-07-09T10:50:05;4.43;;;3.87;;
568;SDS011;269;48.884;9.192;2023-07-09T10:52:41;4.53;;;3.40;;
568;SDS011;269;48.884;9.192;2023-07-09T10:55:15;3.87;;;3.37;;
568;SDS011;269;48.884;9.192;2023-07-09T10:57:45;4.07;;;3.67;;
568;SDS011;269;48.884;9.192;2023-07-09T11:00:16;3.63;;;3.33;;
568;SDS011;269;48.884;9.192;2023-07-09T11:02:46;3.80;;;3.27;;
568;SDS011;269;48.884;9.192;2023-07-09T11:05:17;4.23;;;3.83;;
568;SDS011;269;48.884;9.192;2023-07-09T11:07:47;4.10;;;3.70;;
568;SDS011;269;48.884;9.192;2023-07-09T11:10:23;4.13;;;3.63;;
568;SDS011;269;48.884;9.192;2023-07-09T11:13:00;3.60;;;3.30;;
568;SDS011;269;48.884;9.192;2023-07-09T11:15:33;4.13;;;3.80;;
568;SDS011;269;48.884;9.192;2023-07-09T11:18:04;3.80;;;3.50;;
568;SDS011;269;48.884;9.192;2023-07-09T11:20:33;4.03;;;3.63;;
568;SDS011;269;48.884;9.192;2023-07-09T11:23:05;4.53;;;3.60;;
568;SDS011;269;48.884;9.192;2023-07-09T11:25:40;4.17;;;3.77;;
568;SDS011;269;48.884;9.192;2023-07-09T11:28:09;3.80;;;3.40;;
568;SDS011;269;48.884;9.192;2023-07-09T11:30:47;4.60;;;4.20;;
568;SDS011;269;48.884;9.192;2023-07-09T11:33:16;3.90;;;3.60;;
568;SDS011;269;48.884;9.192;2023-07-09T11:35:45;3.50;;;3.30;;
568;SDS011;269;48.884;9.192;2023-07-09T11:38:17;3.93;;;3.47;;
568;SDS011;269;48.884;9.192;2023-07-09T11:40:47;4.60;;;3.60;;
568;SDS011;269;48.884;9.192;2023-07-09T11:43:27;4.13;;;3.73;;
568;SDS011;269;48.884;9.192;2023-07-09T11:45:55;4.90;;;4.40;;
568;SDS011;269;48.884;9.192;2023-07-09T11:48:27;3.90;;;3.60;;
568;SDS011;269;48.884;9.192;2023-07-09T11:50:56;4.50;;;4.00;;
568;SDS011;269;48.884;9.192;2023-07-09T11:53:28;4.23;;;3.93;;
568;SDS011;269;48.884;9.192;2023-07-09T11:56:00;4.20;;;3.80;;
568;SDS011;269;48.884;9.192;2023-07-09T11:58:27;3.90;;;3.60;;
568;SDS011;269;48.884;9.192;2023-07-09T12:00:55;3.90;;;3.50;;
568;SDS011;269;48.884;9.192;2023-07-09T12:03:25;4.00;;;3.60;;
568;SDS011;269;48.884;9.192;2023-07-09T12:05:55;4.30;;;3.80;;
568;SDS011;269;48.884;9.192;2023-07-09T12:08:26;5.83;;;4.20;;
568;SDS011;269;48.884;9.192;2023-07-09T12:10:57;4.17;;;3.80;;
568;SDS011;269;48.884;9.192;2023-07-09T12:13:24;4.40;;;4.00;;
568;SDS011;269;48.884;9.192;2023-07-09T12:15:51;5.10;;;3.80;;
568;SDS011;269;48.884;9.192;2023-07-09T12:18:18;5.10;;;4.50;;
568;SDS011;269;48.884;9.192;2023-07-09T12:20:47;3.83;;;3.43;;
568;SDS011;269;48.884;9.192;2023-07-09T12:23:22;3.90;;;3.50;;
568;SDS011;269;48.884;9.192;2023-07-09T12:25:53;4.13;;;3.83;;
568;SDS011;269;48.884;9.192;2023-07-09T12:28:22;4.60;;;4.20;;
568;SDS011;269;48.884;9.192;2023-07-09T12:30:49;4.50;;;4.10;;
568;SDS011;269;48.884;9.192;2023-07-09T12:33:18;4.80;;;4.40;;
568;SDS011;269;48.884;9.192;2023-07-09T12:35:47;4.67;;;4.17;;
568;SDS011;269;48.884;9.192;2023-07-09T12:38:18;4.73;;;4.30;;
568;SDS011;269;48.884;9.192;2023-07-09T12:40:47;5.03;;;3.93;;
568;SDS011;269;48.884;9.192;2023-07-09T12:43:17;4.60;;;3.73;;
568;SDS011;269;48.884;9.192;2023-07-09T12:45:48;5.20;;;4.70;;
568;SDS011;269;48.884;9.192;2023-07-09T12:48:15;4.60;;;4.20;;
568;SDS011;269;48.884;9.192;2023-07-09T12:50:47;4.43;;;4.00;;
568;SDS011;269;48.884;9.192;2023-07-09T12:53:17;5.10;;;4.60;;
568;SDS011;269;48.884;9.192;2023-07-09T12:55:47;4.30;;;3.87;;
568;SDS011;269;48.884;9.192;2023-07-09T12:58:18;5.50;;;4.00;;
568;SDS011;269;48.884;9.192;2023-07-09T13:00:49;4.80;;;3.93;;
568;SDS011;269;48.884;9.192;2023-07-09T13:03:19;4.80;;;4.30;;
568;SDS011;269;48.884;9.192;2023-07-09T13:05:51;4.30;;;3.70;;
568;SDS011;269;48.884;9.192;2023-07-09T13:08:19;5.83;;;4.10;;
568;SDS011;269;48.884;9.192;2023-07-09T13:10:46;4.40;;;4.10;;
568;SDS011;269;48.884;9.192;2023-07-09T13:13:18;4.57;;;4.17;;
568;SDS011;269;48.884;9.192;2023-07-09T13:15:47;4.30;;;3.90;;
568;SDS011;269;48.884;9.192;2023-07-09T13:18:17;4.93;;;3.80;;
568;SDS011;269;48.884;9.192;2023-07-09T13:20:44;5.17;;;4.43;;
568;SDS011;269;48.884;9.192;2023-07-09T13:23:14;6.40;;;4.00;;
568;SDS011;269;48.884;9.192;2023-07-09T13:25:43;4.43;;;4.03;;
568;SDS011;269;48.884;9.192;2023-07-09T13:28:13;10.00;;;4.40;;
568;SDS011;269;48.884;9.192;2023-07-09T13:30:44;5.83;;;4.37;;
568;SDS011;269;48.884;9.192;2023-07-09T13:33:11;4.63;;;4.23;;
568;SDS011;269;48.884;9.192;2023-07-09T13:35:38;4.93;;;3.73;;
568;SDS011;269;48.884;9.192;2023-07-09T13:38:10;4.03;;;3.63;;
568;SDS011;269;48.884;9.192;2023-07-09T13:40:40;4.23;;;3.83;;
568;SDS011;269;48.884;9.192;2023-07-09T13:43:10;4.97;;;4.00;;
568;SDS011;269;48.884;9.192;2023-07-09T13:45:38;5.60;;;4.10;;
568;SDS011;269;48.884;9.192;2023-07-09T13:48:09;4.90;;;4.40;;
568;SDS011;269;48.884;9.192;2023-07-09T13:50:41;4.90;;;3.83;;
568;SDS011;269;48.884;9.192;2023-07-09T13:53:11;4.57;;;4.00;;
568;SDS011;269;48.884;9.192;2023-07-09T13:55:40;4.50;;;4.03;;
568;SDS011;269;48.884;9.192;2023-07-09T13:58:08;4.90;;;4.37;;
568;SDS011;269;48.884;9.192;2023-07-09T14:00:36;4.70;;;4.30;;
568;SDS011;269;48.884;9.192;2023-07-09T14:03:04;4.43;;;4.10;;
568;SDS011;269;48.884;9.192;2023-07-09T14:05:40;7.37;;;4.53;;
568;SDS011;269;48.884;9.192;2023-07-09T14:08:07;3.87;;;3.50;;
568;SDS011;269;48.884;9.192;2023-07-09T14:10:35;5.40;;;4.00;;
568;SDS011;269;48.884;9.192;2023-07-09T14:13:03;6.20;;;4.60;;
568;SDS011;269;48.884;9.192;2023-07-09T14:15:30;5.13;;;3.80;;
568;SDS011;269;48.884;9.192;2023-07-09T14:17:57;4.53;;;4.00;;
568;SDS011;269;48.884;9.192;2023-07-09T14:20:26;5.10;;;4.60;;
568;SDS011;269;48.884;9.192;2023-07-09T14:22:53;4.63;;;4.03;;
568;SDS011;269;48.884;9.192;2023-07-09T14:25:22;4.77;;;4.10;;
568;SDS011;269;48.884;9.192;2023-07-09T14:27:51;4.30;;;3.90;;
568;SDS011;269;48.884;9.192;2023-07-09T14:30:20;4.63;;;3.80;;
568;SDS011;269;48.884;9.192;2023-07-09T14:32:48;4.77;;;4.33;;
568;SDS011;269;48.884;9.192;2023-07-09T14:35:17;5.63;;;4.50;;
568;SDS011;269;48.884;9.192;2023-07-09T14:37:48;5.10;;;4.60;;
568;SDS011;269;48.884;9.192;2023-07-09T14:40:18;4.47;;;4.07;;
568;SDS011;269;48.884;9.192;2023-07-09T14:42:47;4.80;;;3.87;;
568;SDS011;269;48.884;9.192;2023-07-09T14:45:17;4.60;;;4.10;;
568;SDS011;269;48.884;9.192;2023-07-09T14:47:48;5.20;;;4.30;;
568;SDS011;269;48.884;9.192;2023-07-09T14:50:15;5.20;;;4.10;;
568;SDS011;269;48.884;9.192;2023-07-09T14:52:44;4.13;;;3.80;;
568;SDS011;269;48.884;9.192;2023-07-09T14:55:14;4.30;;;4.00;;
568;SDS011;269;48.884;9.192;2023-07-09T14:57:42;4.07;;;3.77;;
568;SDS011;269;48.884;9.192;2023-07-09T15:00:13;4.50;;;4.10;;
568;SDS011;269;48.884;9.192;2023-07-09T15:02:41;5.60;;;4.00;;
568;SDS011;269;48.884;9.192;2023-07-09T15:05:14;5.10;;;4.60;;
568;SDS011;269;48.884;9.192;2023-07-09T15:07:42;4.50;;;4.10;;
568;SDS011;269;48.884;9.192;2023-07-09T15:10:15;5.93;;;4.30;;
568;SDS011;269;48.884;9.192;2023-07-09T15:12:44;4.43;;;3.80;;
568;SDS011;269;48.884;9.192;2023-07-09T15:15:17;4.03;;;3.63;;
568;SDS011;269;48.884;9.192;2023-07-09T15:17:47;4.40;;;4.00;;
568;SDS011;269;48.884;9.192;2023-07-09T15:20:15;3.47;;;3.17;;
568;SDS011;269;48.884;9.192;2023-07-09T15:22:43;5.33;;;3.90;;
568;SDS011;269;48.884;9.192;2023-07-09T15:25:16;4.43;;;4.03;;
568;SDS011;269;48.884;9.192;2023-07-09T15:27:45;3.93;;;3.53;;
568;SDS011;269;48.884;9.192;2023-07-09T15:30:14;4.50;;;3.30;;
568;SDS011;269;48.884;9.192;2023-07-09T15:32:43;7.50;;;3.73;;
568;SDS011;269;48.884;9.192;2023-07-09T15:35:11;4.20;;;3.80;;
568;SDS011;269;48.884;9.192;2023-07-09T15:37:38;4.00;;;3.60;;
568;SDS011;269;48.884;9.192;2023-07-09T15:40:13;4.40;;;4.00;;
568;SDS011;269;48.884;9.192;2023-07-09T15:42:47;5.43;;;4.10;;
568;SDS011;269;48.884;9.192;2023-07-09T15:45:16;4.80;;;4.07;;
568;SDS011;269;48.884;9.192;2023-07-09T15:47:44;4.70;;;4.30;;
568;SDS011;269;48.884;9.192;2023-07-09T15:50:17;4.40;;;4.00;;
568;SDS011;269;48.884;9.192;2023-07-09T15:52:46;4.37;;;3.83;;
568;SDS011;269;48.884;9.192;2023-07-09T15:55:14;4.87;;;4.37;;
568;SDS011;269;48.884;9.192;2023-07-09T15:57:43;4.60;;;4.20;;